Time;durP1;ratioP1;P1;durP2;ratioP2;P2;SDS_P1;SDS_P2;PMS_P1;PMS_P2;Temp;Humidity;BMP_temperature;BMP_pressure;BME280_temperature;BME280_humidity;BME280_pressure;Samples;Min_cycle;Max_cycle;Signal;HPM_P1;HPM_P2
2022/12/19 00:01:32;;;;;;;30.92;16.55;;;;;;;-145.12;100.00;80486.61;1819500;79;21161;-69
2022/12/19 00:04:04;;;;;;;28.35;16.07;;;;;;;-145.12;0.00;80348.69;1819302;79;20908;-69
2022/12/19 00:06:31;;;;;;;23.20;14.55;;;;;;;-145.12;100.00;101473.87;1819633;79;20961;-70
2022/12/19 00:08:59;;;;;;;17.77;13.30;;;;;;;-145.12;0.00;121243.64;1819208;79;21482;-68
2022/12/19 00:11:37;;;;;;;19.82;13.05;;;;;;;-146.13;0.00;87584.22;1819535;79;20928;-70
2022/12/19 00:14:04;;;;;;;28.30;18.20;;;;;;;-145.12;100.00;101473.87;1819545;79;21395;-69
2022/12/19 00:16:31;;;;;;;22.40;15.53;;;;;;;-145.12;0.00;80348.69;1819329;79;20869;-69
2022/12/19 00:19:00;;;;;;;18.57;13.05;;;;;;;-145.12;0.00;80348.69;1819578;79;20948;-68
2022/12/19 00:21:29;;;;;;;28.62;18.40;;;;;;;-6.17;100.00;101473.87;1819437;79;20976;-69
2022/12/19 00:23:56;;;;;;;16.67;13.18;;;;;;;-6.17;100.00;101473.87;1819888;79;20952;-68
2022/12/19 00:26:35;;;;;;;22.93;15.38;;;;;;;-6.17;100.00;101473.87;1819254;79;21311;-69
2022/12/19 00:29:05;;;;;;;30.15;18.77;;;;;;;-6.06;100.00;101536.30;1819349;78;20892;-68
2022/12/19 00:31:34;;;;;;;22.42;13.25;;;;;;;-6.01;100.00;101532.09;1819474;79;20922;-69
2022/12/19 00:34:01;;;;;;;20.25;12.60;;;;;;;-6.20;100.00;101533.72;1819683;79;21777;-69
2022/12/19 00:36:31;;;;;;;20.20;14.50;;;;;;;-6.16;100.00;101534.39;1819455;79;20984;-68
2022/12/19 00:39:01;;;;;;;29.52;18.25;;;;;;;-145.12;100.00;101536.16;1819249;79;21118;-68
2022/12/19 00:41:32;;;;;;;26.15;15.78;;;;;;;-145.12;0.00;80387.66;1819340;79;21509;-67
2022/12/19 00:44:03;;;;;;;29.42;16.48;;;;;;;-145.12;0.00;80387.66;1819574;79;20873;-69
2022/12/19 00:46:32;;;;;;;30.72;17.42;;;;;;;-6.10;100.00;101536.16;1819262;79;20905;-69
2022/12/19 00:49:06;;;;;;;28.67;15.45;;;;;;;-146.14;100.00;121243.23;1819356;79;20968;-68
2022/12/19 00:51:35;;;;;;;34.83;19.67;;;;;;;113.96;0.00;101536.16;1819414;79;21265;-70
2022/12/19 00:54:02;;;;;;;34.88;17.62;;;;;;;-145.12;0.00;80387.66;1819590;79;20833;-69
2022/12/19 00:56:33;;;;;;;25.90;16.48;;;;;;;-6.10;100.00;101536.16;1819259;79;20865;-69
2022/12/19 00:59:00;;;;;;;57.25;28.10;;;;;;;-145.12;0.00;80387.66;1819693;78;28504;-68
2022/12/19 01:01:33;;;;;;;27.32;15.03;;;;;;;-145.12;100.00;101536.16;1819521;79;20960;-69
2022/12/19 01:04:01;;;;;;;38.05;21.50;;;;;;;-6.10;100.00;101536.16;1819653;79;21148;-69
2022/12/19 01:06:28;;;;;;;37.55;20.35;;;;;;;-6.10;100.00;101536.16;1819565;79;20902;-69
2022/12/19 01:08:55;;;;;;;60.92;27.75;;;;;;;-6.10;100.00;101536.16;1819329;79;21411;-69
2022/12/19 01:12:44;;;;;;;33.18;18.37;;;;;;;-6.10;100.00;101536.16;1796939;79;21425;-68
2022/12/19 01:13:51;;;;;;;45.90;23.40;;;;;;;-6.10;100.00;101536.16;1814485;79;20908;-68
2022/12/19 01:16:18;;;;;;;30.25;17.52;;;;;;;-6.11;100.00;101568.92;1798541;78;21358;-69
2022/12/19 01:18:45;;;;;;;22.32;15.45;;;;;;;-6.15;100.00;101578.74;1819267;79;20869;-69
2022/12/19 01:21:11;;;;;;;20.90;13.78;;;;;;;-5.98;100.00;101575.03;1819400;79;20857;-69
2022/12/19 01:23:38;;;;;;;38.10;19.32;;;;;;;-5.95;100.00;101568.77;1819349;79;20896;-69
2022/12/19 01:26:05;;;;;;;32.83;20.92;;;;;;;-6.19;100.00;101564.17;1819407;78;20861;-70
2022/12/19 01:28:32;;;;;;;39.10;26.35;;;;;;;-5.97;100.00;101575.91;1819537;79;21324;-68
2022/12/19 01:31:04;;;;;;;391.47;228.90;;;;;;;-5.82;100.00;101584.04;1819557;79;21474;-69
2022/12/19 01:33:33;;;;;;;158.22;103.53;;;;;;;-93.79;100.00;101584.04;1774634;79;21463;-69
2022/12/19 01:36:06;;;;;;;46.60;33.70;;;;;;;-5.82;100.00;101584.04;1819367;79;20909;-70
2022/12/19 01:38:28;;;;;;;50.58;32.67;;;;;;;-5.87;100.00;101590.03;1818576;79;21497;-69
2022/12/19 01:40:56;;;;;;;63.75;43.17;;;;;;;-5.87;100.00;101590.03;1819625;79;21154;-68
2022/12/19 01:43:24;;;;;;;25.02;18.15;;;;;;;-5.81;100.00;101596.17;1819584;79;20893;-68
2022/12/19 01:46:01;;;;;;;343.80;133.37;;;;;;;-5.74;100.00;101583.55;1819689;78;20912;-69
2022/12/19 01:48:37;;;;;;;131.40;48.13;;;;;;;-5.79;100.00;101583.00;1817635;79;20964;-68
2022/12/19 01:51:18;;;;;;;444.93;152.30;;;;;;;-5.87;100.00;101588.25;1819501;79;20908;-68
2022/12/19 01:53:57;;;;;;;249.90;84.77;;;;;;;-6.01;100.00;101585.70;1819600;79;21310;-69
2022/12/19 01:56:29;;;;;;;318.25;111.45;;;;;;;-6.11;100.00;101584.12;1819718;78;20925;-68
2022/12/19 01:58:57;;;;;;;273.02;88.75;;;;;;;-6.00;100.00;101583.47;1819579;79;21003;-71
2022/12/19 02:01:24;;;;;;;321.73;112.62;;;;;;;115.84;100.00;121243.64;1797982;78;21509;-69
2022/12/19 02:03:51;;;;;;;206.63;72.42;;;;;;;-146.13;0.00;80493.96;1817734;79;21388;-69
2022/12/19 02:06:18;;;;;;;201.73;67.12;;;;;;;115.84;100.00;101586.45;1819669;79;21248;-70
2022/12/19 02:08:47;;;;;;;70.25;29.37;;;;;;;115.84;100.00;101586.45;1819388;79;21005;-70
2022/12/19 02:11:14;;;;;;;274.40;86.45;;;;;;;-5.99;100.00;101586.45;1819952;78;20837;-69
2022/12/19 02:13:42;;;;;;;;;;;;;;;-5.76;100.00;101596.71;1805143;79;20946;-69
2022/12/19 02:16:32;;;;;;;114.42;45.28;;;;;;;-5.74;100.00;101596.15;1817991;79;20090;-69
2022/12/19 02:19:37;;;;;;;204.78;73.47;;;;;;;-5.69;100.00;101589.32;1819079;79;21434;-70
2022/12/19 02:22:18;;;;;;;72.05;29.87;;;;;;;-5.51;100.00;101596.00;1819537;79;20833;-70
2022/12/19 02:25:08;;;;;;;70.52;30.02;;;;;;;-5.34;100.00;101588.35;1819532;79;21439;-70
2022/12/19 02:28:12;;;;;;;44.80;25.50;;;;;;;-5.56;100.00;101599.38;1819196;79;21407;-70
2022/12/19 02:30:46;;;;;;;34.45;21.27;;;;;;;104.67;0.00;80351.76;1819644;79;20971;-70
2022/12/19 02:33:26;;;;;;;33.80;19.92;;;;;;;104.67;100.00;80351.76;1819507;79;21084;-69
2022/12/19 02:35:56;;;;;;;20.12;13.60;;;;;;;-5.42;100.00;101601.08;1814568;79;20857;-68
2022/12/19 02:38:58;;;;;;;19.40;15.13;;;;;;;-5.42;100.00;101601.08;1819598;78;20893;-69
2022/12/19 02:41:45;;;;;;;18.25;11.80;;;;;;;-5.42;100.00;101601.08;1819431;78;21439;-67
2022/12/19 02:44:27;;;;;;;20.48;14.50;;;;;;;-5.42;100.00;101601.08;1818937;79;21003;-69
2022/12/19 02:46:57;;;;;;;24.25;16.87;;;;;;;-5.96;100.00;101601.10;1819615;79;21301;-68
2022/12/19 02:49:24;;;;;;;21.37;14.80;;;;;;;-5.96;100.00;101608.47;1775579;78;20933;-68
2022/12/19 02:51:51;;;;;;;34.25;22.67;;;;;;;-5.95;100.00;101620.63;1819614;78;20904;-69
2022/12/19 02:54:18;;;;;;;31.30;19.15;;;;;;;-5.94;100.00;101614.45;1819468;79;20956;-69
2022/12/19 02:56:59;;;;;;;63.65;31.37;;;;;;;-6.32;100.00;101616.82;1819442;79;20929;-69
2022/12/19 03:00:03;;;;;;;44.53;24.87;;;;;;;-6.07;100.00;101614.39;1818691;79;21151;-69
2022/12/19 03:02:42;;;;;;;29.25;17.37;;;;;;;-6.05;100.00;101614.27;1819381;79;20897;-68
2022/12/19 03:05:45;;;;;;;39.67;21.62;;;;;;;-6.04;100.00;101620.72;1819505;79;20920;-68
2022/12/19 03:08:30;;;;;;;23.00;17.40;;;;;;;-6.01;100.00;101621.47;1819566;79;21410;-69
2022/12/19 03:11:05;;;;;;;30.55;19.12;;;;;;;-5.96;100.00;101623.33;1809228;79;20964;-69
2022/12/19 03:14:00;;;;;;;22.87;15.13;;;;;;;-5.94;100.00;101622.77;1819325;79;21264;-67
2022/12/19 03:16:27;;;;;;;36.08;18.90;;;;;;;-5.80;100.00;101616.17;1819263;79;20991;-69
2022/12/19 03:18:54;;;;;;;46.17;24.00;;;;;;;-5.81;100.00;101627.55;1819560;79;20858;-69
2022/12/19 03:21:40;;;;;;;44.67;23.98;;;;;;;-5.79;100.00;101624.86;1819415;79;20869;-71
2022/12/19 03:24:09;;;;;;;44.73;20.72;;;;;;;-5.66;100.00;101625.74;1819430;79;21470;-69
2022/12/19 03:26:38;;;;;;;;;;;;;;;-5.71;100.00;101622.11;1796038;78;21070;-70
2022/12/19 03:29:13;;;;;;;26.20;15.88;;;;;;;-5.67;100.00;101626.69;1819431;78;20086;-69
2022/12/19 03:31:40;;;;;;;28.00;14.75;;;;;;;-5.83;100.00;101621.13;1819515;79;21004;-69
2022/12/19 03:34:24;;;;;;;40.03;22.15;;;;;;;-5.86;100.00;101611.31;1819293;79;20925;-69
2022/12/19 03:36:55;;;;;;;34.30;19.98;;;;;;;-5.80;100.00;101624.50;1819553;79;20888;-70
2022/12/19 03:39:22;;;;;;;20.92;13.58;;;;;;;-5.82;100.00;101628.03;1819560;79;21222;-69
2022/12/19 03:44:37;;;;;;;34.58;20.43;;;;;;;-5.83;100.00;101619.83;1796635;78;20945;-69
2022/12/19 03:47:21;;;;;;;31.62;17.12;;;;;;;-5.98;100.00;101622.58;1810212;78;20983;-70
2022/12/19 03:49:48;;;;;;;40.33;22.00;;;;;;;-6.05;100.00;101613.83;1817534;78;21473;-69
2022/12/19 03:52:35;;;;;;;27.95;15.45;;;;;;;-5.97;100.00;101613.34;1819374;79;21257;-68
2022/12/19 03:55:26;;;;;;;34.13;20.32;;;;;;;-5.83;100.00;101617.21;1819376;79;20893;-69
2022/12/19 03:58:11;;;;;;;51.48;26.70;;;;;;;-5.88;100.00;101619.72;1819621;79;21371;-70
2022/12/19 04:00:39;;;;;;;49.73;25.62;;;;;;;-5.96;100.00;101617.63;1818457;79;20968;-67
2022/12/19 04:03:06;;;;;;;50.98;25.45;;;;;;;-5.88;100.00;101622.34;1819748;78;26529;-70
2022/12/19 04:05:33;;;;;;;70.72;32.50;;;;;;;-5.89;100.00;101624.59;1819272;79;21260;-70
2022/12/19 04:08:04;;;;;;;37.15;25.55;;;;;;;-6.01;100.00;101618.38;1819226;79;20865;-69
2022/12/19 04:10:32;;;;;;;60.78;38.45;;;;;;;-5.83;100.00;101633.34;1819316;79;20861;-71
2022/12/19 04:13:03;;;;;;;403.25;260.43;;;;;;;-5.83;100.00;101633.34;1819280;79;21497;-69
2022/12/19 04:15:39;;;;;;;89.62;55.45;;;;;;;103.01;0.00;80429.73;1819214;79;21031;-70
2022/12/19 04:18:15;;;;;;;147.07;74.67;;;;;;;103.01;0.00;80429.73;1801039;78;21129;-70
2022/12/19 04:21:02;;;;;;;65.50;37.30;;;;;;;103.01;0.00;121243.64;1819416;79;21474;-68
2022/12/19 04:23:48;;;;;;;45.70;27.62;;;;;;;-146.13;0.00;86975.05;1818911;79;20976;-69
2022/12/19 04:26:22;;;;;;;31.25;20.50;;;;;;;-144.81;14.27;101633.34;1818852;79;21423;-70
2022/12/19 04:28:55;;;;;;;92.65;55.73;;;;;;;103.01;0.00;80429.73;1819431;79;20972;-68
2022/12/19 04:31:28;;;;;;;105.03;45.17;;;;;;;103.01;0.00;80429.73;1819568;79;21793;-70
2022/12/19 04:34:07;;;;;;;119.45;50.05;;;;;;;103.01;0.00;80429.73;1819178;79;20826;-70
2022/12/19 04:36:52;;;;;;;176.63;71.57;;;;;;;-146.14;100.00;119910.67;1819322;79;20872;-72
2022/12/19 04:40:00;;;;;;;48.45;24.72;;;;;;;103.01;100.00;101633.34;1819398;79;20956;-68
2022/12/19 04:42:32;;;;;;;262.72;130.72;;;;;;;103.01;100.00;101633.34;1819434;79;20920;-69
2022/12/19 04:45:24;;;;;;;159.75;82.92;;;;;;;-93.79;100.00;121243.23;1819350;79;22165;-68
2022/12/19 04:48:03;;;;;;;218.40;79.70;;;;;;;-5.83;100.00;119910.67;1819413;79;20956;-69
2022/12/19 04:51:23;;;;;;;372.17;129.57;;;;;;;103.01;100.00;101633.34;1819417;79;20877;-67
2022/12/19 04:54:27;;;;;;;295.23;98.45;;;;;;;103.01;100.00;101633.34;1819429;79;20960;-67
2022/12/19 04:56:56;;;;;;;225.20;76.10;;;;;;;103.01;0.00;101633.34;1819494;79;20904;-68
2022/12/19 04:59:41;;;;;;;207.60;69.97;;;;;;;-93.79;12.26;160263.09;1819390;78;21280;-70
2022/12/19 05:02:12;;;;;;;184.30;62.40;;;;;;;-146.13;0.00;80429.73;1819492;79;20960;-70
2022/12/19 05:04:39;;;;;;;434.93;141.28;;;;;;;103.01;0.00;80429.73;1819425;79;20968;-71
2022/12/19 05:07:18;;;;;;;81.55;33.50;;;;;;;103.01;0.00;80429.73;1819536;79;20870;-69
2022/12/19 05:10:10;;;;;;;136.40;54.23;;;;;;;-5.83;100.00;101633.34;1819606;79;20854;-69
2022/12/19 05:12:39;;;;;;;51.40;25.27;;;;;;;103.01;0.00;121243.64;1819679;79;21815;-70
2022/12/19 05:15:08;;;;;;;38.83;22.65;;;;;;;-146.13;0.00;80986.34;1819574;79;20901;-69
2022/12/19 05:17:36;;;;;;;74.03;38.23;;;;;;;103.01;100.00;101633.34;1819899;78;20837;-69
2022/12/19 05:20:20;;;;;;;49.93;31.48;;;;;;;103.01;0.00;121243.64;1819532;79;21376;-69
2022/12/19 05:22:47;;;;;;;32.15;22.22;;;;;;;-5.83;100.00;101633.34;1819524;79;21592;-70
2022/12/19 05:25:44;;;;;;;115.22;67.87;;;;;;;105.06;0.00;121243.23;1819521;79;21157;-69
2022/12/19 05:28:12;;;;;;;33.83;24.90;;;;;;;-6.07;100.00;101728.59;1819711;79;23811;-71
2022/12/19 05:30:39;;;;;;;23.22;17.12;;;;;;;-6.10;100.00;101710.45;1819650;79;20956;-71
2022/12/19 05:33:06;;;;;;;27.58;20.15;;;;;;;-7.09;100.00;101704.92;1819495;79;20916;-69
2022/12/19 05:35:34;;;;;;;23.77;18.42;;;;;;;-7.27;100.00;101693.77;1819437;79;20914;-69
2022/12/19 05:38:03;;;;;;;;;;;;;;;-146.14;100.00;121243.23;1822520;78;21114;-68
2022/12/19 05:41:17;;;;;;;44.30;26.02;;;;;;;115.93;0.00;80616.45;1819535;79;20101;-68
2022/12/19 05:43:53;;;;;;;51.88;36.23;;;;;;;-145.11;100.00;101693.89;1819503;79;21450;-69
2022/12/19 05:46:20;;;;;;;22.65;15.30;;;;;;;-6.91;100.00;101693.89;1819745;78;20964;-69
2022/12/19 05:50:08;;;;;;;29.00;19.52;;;;;;;-146.14;100.00;120828.62;1819440;79;20952;-68
2022/12/19 05:52:35;;;;;;;27.22;20.48;;;;;;;-146.13;0.00;101693.89;1819922;78;21123;-69
2022/12/19 05:55:05;;;;;;;19.15;15.53;;;;;;;-145.11;0.00;121243.64;1819346;79;20865;-70
2022/12/19 05:59:24;;;;;;;30.62;18.20;;;;;;;-146.14;100.00;121243.23;1819794;78;20837;-66
2022/12/19 06:02:11;;;;;;;22.13;15.63;;;;;;;-146.13;100.00;101693.89;1819487;79;20936;-69
2022/12/19 06:06:54;;;;;;;23.22;15.72;;;;;;;-146.14;100.00;121243.23;1819613;79;21016;-68
2022/12/19 06:09:28;;;;;;;27.00;16.90;;;;;;;-145.74;0.00;122478.52;1819337;79;22386;-69
2022/12/19 06:12:56;;;;;;;24.52;19.85;;;;;;;-146.14;0.00;121243.23;1819400;79;20861;-70
2022/12/19 06:17:37;;;;;;;30.65;22.82;;;;;;;-146.13;0.00;80795.02;1819614;79;20878;-67
2022/12/19 06:38:07;;;;;;;26.35;17.05;;;;;;;-6.91;100.00;101693.89;1819567;79;20920;-67
2022/12/19 06:45:20;;;;;;;65.03;34.23;;;;;;;-6.91;100.00;101693.89;1819503;79;21252;-68
2022/12/19 06:47:48;;;;;;;39.63;22.67;;;;;;;-145.11;100.00;101693.89;1819378;79;20992;-70
2022/12/19 06:50:15;;;;;;;52.85;29.42;;;;;;;-6.91;100.00;101693.89;1819628;79;20921;-70
2022/12/19 06:52:45;;;;;;;56.95;28.55;;;;;;;-145.17;0.00;80575.41;1819428;79;20924;-70
2022/12/19 06:55:12;;;;;;;125.78;56.98;;;;;;;-6.17;100.00;101762.73;1819589;79;20861;-71
2022/12/19 06:57:44;;;;;;;61.77;34.73;;;;;;;-5.64;100.00;101784.78;1819628;79;21469;-70
2022/12/19 07:00:10;;;;;;;35.65;20.72;;;;;;;-5.49;100.00;101784.30;1818685;79;21529;-71
2022/12/19 07:02:36;;;;;;;107.45;49.18;;;;;;;-5.18;100.00;101793.70;1819523;79;20974;-70
2022/12/19 07:05:05;;;;;;;45.52;24.85;;;;;;;-4.99;100.00;101802.55;1819576;79;20892;-70
2022/12/19 07:07:32;;;;;;;77.87;34.05;;;;;;;-5.09;100.00;101806.23;1819503;79;20945;-69
2022/12/19 07:09:58;;;;;;;22.77;14.47;;;;;;;-4.69;100.00;101803.66;1819335;79;21271;-70
2022/12/19 07:12:25;;;;;;;23.60;15.32;;;;;;;-4.69;100.00;101803.66;1819525;79;20877;-70
2022/12/19 07:14:51;;;;;;;27.30;17.42;;;;;;;-4.45;100.00;101805.16;1819645;79;21407;-70
2022/12/19 07:17:18;;;;;;;30.72;19.82;;;;;;;-4.28;100.00;101808.45;1819313;79;21382;-70
2022/12/19 07:19:45;;;;;;;23.52;15.32;;;;;;;-4.26;100.00;101808.72;1819349;79;20869;-69
2022/12/19 07:22:12;;;;;;;29.07;16.05;;;;;;;-3.85;100.00;101805.06;1819474;79;22199;-69
2022/12/19 07:24:38;;;;;;;18.42;12.15;;;;;;;-5.25;100.00;101801.09;1819872;79;20885;-70
2022/12/19 07:27:06;;;;;;;20.77;12.68;;;;;;;-5.25;100.00;101801.09;1819731;79;21351;-71
2022/12/19 07:29:32;;;;;;;24.87;15.48;;;;;;;-5.47;100.00;101811.23;1819481;79;20917;-70
2022/12/19 07:31:59;;;;;;;20.45;13.98;;;;;;;-5.15;100.00;101811.00;1819383;79;20885;-70
2022/12/19 07:34:25;;;;;;;16.95;11.45;;;;;;;-5.21;100.00;101813.07;1819275;79;21204;-71
2022/12/19 07:36:52;;;;;;;20.68;13.30;;;;;;;-5.24;100.00;101814.58;1819271;79;20921;-70
2022/12/19 07:39:19;;;;;;;21.48;13.18;;;;;;;-5.13;100.00;101816.52;1763483;80;20988;-70
2022/12/19 07:41:45;;;;;;;21.42;13.45;;;;;;;-5.18;100.00;101810.73;1818769;79;20854;-72
2022/12/19 07:44:12;;;;;;;26.23;16.73;;;;;;;-5.27;100.00;101812.13;1819312;79;20862;-70
2022/12/19 07:46:40;;;;;;;26.27;15.05;;;;;;;-4.85;100.00;101810.83;1819446;79;21352;-70
2022/12/19 07:49:07;;;;;;;26.48;17.35;;;;;;;-4.60;100.00;101812.25;1819333;79;21538;-69
2022/12/19 07:51:33;;;;;;;23.52;16.65;;;;;;;-4.01;100.00;101808.38;1819457;79;20873;-72
2022/12/19 07:54:00;;;;;;;21.73;13.32;;;;;;;-3.59;100.00;101803.75;1819384;79;20913;-70
2022/12/19 07:56:27;;;;;;;26.65;15.00;;;;;;;-3.79;100.00;101790.70;1819320;79;20975;-70
2022/12/19 07:58:54;;;;;;;19.35;11.73;;;;;;;-3.95;100.00;101789.11;1819500;79;21184;-71
2022/12/19 08:01:21;;;;;;;114.75;49.45;;;;;;;-3.10;100.00;101777.96;1819076;79;21470;-70
2022/12/19 08:03:48;;;;;;;87.20;40.43;;;;;;;-3.76;100.00;101782.13;1819322;79;20921;-70
2022/12/19 08:06:15;;;;;;;31.60;17.45;;;;;;;-3.63;100.00;101788.67;1819376;79;20893;-70
2022/12/19 08:08:42;;;;;;;34.60;20.97;;;;;;;-3.63;100.00;101788.67;1819413;79;20873;-71
2022/12/19 08:11:17;;;;;;;28.07;16.00;;;;;;;-3.63;100.00;101788.67;1819499;79;21329;-71
2022/12/19 08:13:45;;;;;;;39.20;24.77;;;;;;;-2.77;100.00;101790.42;1819606;78;21387;-70
2022/12/19 08:16:12;;;;;;;33.30;18.33;;;;;;;-2.77;100.00;101790.42;1819753;79;20872;-71
2022/12/19 08:18:39;;;;;;;37.03;20.82;;;;;;;-1.72;100.00;101809.75;1819301;79;20960;-71
2022/12/19 08:21:08;;;;;;;29.98;18.92;;;;;;;-1.82;100.00;101821.95;1819388;79;21407;-70
2022/12/19 08:23:35;;;;;;;57.17;31.93;;;;;;;-1.82;100.00;101821.95;1819525;78;21176;-70
2022/12/19 08:26:04;;;;;;;26.35;16.17;;;;;;;-2.17;100.00;101825.47;1819348;79;20857;-70
2022/12/19 08:28:32;;;;;;;26.35;17.00;;;;;;;-1.81;100.00;101833.69;1819553;78;20952;-71
2022/12/19 08:31:08;;;;;;;20.77;13.13;;;;;;;-2.03;100.00;101822.64;1819612;79;21020;-71
2022/12/19 08:33:35;;;;;;;22.48;15.63;;;;;;;-3.08;100.00;101825.50;1819748;78;20908;-70
2022/12/19 08:36:06;;;;;;;41.48;26.65;;;;;;;-2.96;100.00;101824.25;1819647;79;21272;-70
2022/12/19 08:38:35;;;;;;;56.92;38.58;;;;;;;-2.77;100.00;101823.77;1769935;79;21455;-70
2022/12/19 08:41:02;;;;;;;39.23;26.03;;;;;;;-2.67;100.00;101823.00;1819893;79;20972;-69
2022/12/19 08:43:29;;;;;;;35.15;18.87;;;;;;;-2.60;100.00;101826.87;1819657;79;20869;-70
2022/12/19 08:45:56;;;;;;;38.05;23.27;;;;;;;-2.51;100.00;101841.11;1819523;79;20877;-71
2022/12/19 08:48:23;;;;;;;58.98;36.88;;;;;;;-2.74;100.00;101846.75;1819652;79;21395;-70
2022/12/19 08:50:52;;;;;;;33.55;22.10;;;;;;;-2.65;100.00;101841.28;1819345;79;21557;-70
2022/12/19 08:53:19;;;;;;;35.80;23.22;;;;;;;-2.50;100.00;101834.05;1819770;78;21474;-70
2022/12/19 08:55:47;;;;;;;23.87;15.17;;;;;;;-2.22;100.00;101838.13;1819671;79;20885;-69
2022/12/19 08:58:14;;;;;;;;;;;;;;;-2.45;100.00;101842.00;1822396;79;20898;-70
2022/12/19 09:00:43;;;;;;;22.62;14.18;;;;;;;-2.78;100.00;101832.62;1819431;79;21148;-74
2022/12/19 09:03:09;;;;;;;;;;;;;;;-2.52;100.00;101832.01;1822191;79;20971;-68
2022/12/19 09:05:38;;;;;;;51.98;26.30;;;;;;;-2.56;100.00;101832.73;1819539;79;20117;-69
2022/12/19 09:08:05;;;;;;;35.13;18.23;;;;;;;-2.30;100.00;101829.50;1819879;78;20924;-69
2022/12/19 09:10:36;;;;;;;59.75;32.73;;;;;;;-2.29;100.00;101827.70;1819746;79;20912;-69
2022/12/19 09:13:05;;;;;;;40.00;22.42;;;;;;;-2.06;100.00;101824.64;1819438;79;21435;-70
2022/12/19 09:15:31;;;;;;;28.38;17.17;;;;;;;-1.72;100.00;101826.37;1819459;79;20884;-68
2022/12/19 09:17:58;;;;;;;32.88;19.55;;;;;;;-1.59;100.00;101832.88;1819523;79;20885;-69
2022/12/19 09:20:26;;;;;;;33.88;20.10;;;;;;;-1.48;100.00;101845.20;1819614;79;20925;-70
2022/12/19 09:22:54;;;;;;;27.75;15.60;;;;;;;-1.29;100.00;101851.20;1819512;79;21418;-69
2022/12/19 09:25:20;;;;;;;24.35;15.78;;;;;;;-1.28;100.00;101850.72;1819532;79;21160;-69
2022/12/19 09:27:47;;;;;;;29.50;18.27;;;;;;;-1.59;100.00;101847.84;1820618;79;20955;-68
2022/12/19 09:30:14;;;;;;;30.92;20.37;;;;;;;-1.81;100.00;101850.80;1820576;79;20876;-68
2022/12/19 09:32:41;;;;;;;30.35;19.00;;;;;;;-2.18;100.00;101849.63;1819675;79;20912;-68
2022/12/19 09:35:08;;;;;;;24.32;15.78;;;;;;;-3.07;100.00;101848.67;1819459;79;20877;-68
2022/12/19 09:37:35;;;;;;;72.80;36.10;;;;;;;-3.07;100.00;101848.67;1819607;79;21798;-69
2022/12/19 09:40:02;;;;;;;47.95;23.30;;;;;;;-145.30;90.69;80357.49;1819488;79;20897;-67
2022/12/19 09:45:35;;;;;;;46.40;32.78;;;;;;;-2.82;100.00;101835.92;1682710;85;20950;-69
2022/12/19 09:48:01;;;;;;;26.37;17.12;;;;;;;-2.51;100.00;101829.28;1682531;85;21441;-68
2022/12/19 09:50:50;;;;;;;36.30;22.67;;;;;;;-2.51;100.00;101823.19;1682750;85;21259;-69
2022/12/19 09:53:51;;;;;;;23.65;15.38;;;;;;;-2.14;100.00;101829.17;1682601;85;21346;-68
2022/12/19 09:56:17;;;;;;;17.35;11.10;;;;;;;-2.14;100.00;101829.17;1572742;91;21061;-69
2022/12/19 09:58:48;;;;;;;22.25;14.38;;;;;;;56.66;82.38;80109.66;1571518;91;20973;-69
2022/12/19 10:01:21;;;;;;;36.25;23.85;;;;;;;-2.14;100.00;101829.17;1571537;91;20979;-70
2022/12/19 10:04:05;;;;;;;40.23;26.52;;;;;;;56.66;82.38;80109.66;1571562;91;21442;-71
2022/12/19 10:06:43;;;;;;;24.50;15.53;;;;;;;56.66;82.38;80109.66;1594113;90;21488;-67
2022/12/19 10:09:16;;;;;;;27.77;18.90;;;;;;;-2.14;100.00;101829.17;1592949;90;21622;-70
2022/12/19 10:12:08;;;;;;;24.37;14.65;;;;;;;-93.79;100.00;95080.19;1558390;91;21070;-69
2022/12/19 10:14:56;;;;;;;23.05;15.03;;;;;;;56.66;82.38;101829.17;1545468;92;21161;-68
2022/12/19 10:17:38;;;;;;;24.43;13.53;;;;;;;56.66;82.38;101829.17;1493640;94;21386;-70
2022/12/19 10:20:34;;;;;;;73.80;52.55;;;;;;;-93.79;49.68;80216.66;1498427;94;21526;-69
2022/12/19 10:23:57;;;;;;;35.75;24.95;;;;;;;-93.79;100.00;101829.17;1499816;94;21217;-69
2022/12/19 10:26:51;;;;;;;19.07;12.93;;;;;;;-2.14;100.00;101829.17;1494205;94;21060;-68
2022/12/19 10:29:39;;;;;;;23.02;14.18;;;;;;;-2.14;100.00;101829.17;1505541;94;21061;-69
2022/12/19 10:32:46;;;;;;;224.15;140.55;;;;;;;-6.21;100.00;101782.17;1519429;90;21269;-71
2022/12/19 10:35:37;;;;;;;23.85;17.65;;;;;;;-146.14;100.00;121243.23;1588259;89;21002;-68
2022/12/19 10:39:08;;;;;;;20.80;14.30;;;;;;;-6.21;100.00;101782.17;1583531;88;21067;-70
2022/12/19 10:44:08;;;;;;;43.02;27.80;;;;;;;-6.21;100.00;101782.17;1582412;90;21097;-70
2022/12/19 10:47:16;;;;;;;288.78;107.10;;;;;;;-146.14;100.00;121243.23;1563173;89;21067;-67
2022/12/19 10:53:54;;;;;;;252.15;90.67;;;;;;;-146.14;100.00;121243.23;1553695;89;22162;-67
2022/12/19 10:57:27;;;;;;;275.55;99.83;;;;;;;-6.21;100.00;101782.17;1663514;85;21037;-66
2022/12/19 11:00:08;;;;;;;25.25;13.95;;;;;;;-6.21;100.00;101782.17;1656711;85;21168;-69
2022/12/19 11:02:47;;;;;;;302.52;196.90;;;;;;;-3.85;100.00;101762.24;1656294;85;21528;-69
2022/12/19 11:05:44;;;;;;;25.48;16.20;;;;;;;-3.22;100.00;101770.48;1665752;85;21155;-70
2022/12/19 11:08:25;;;;;;;58.90;46.68;;;;;;;-3.28;100.00;101762.58;1671735;84;21319;-69
2022/12/19 11:11:07;;;;;;;20.65;13.28;;;;;;;-3.43;100.00;101754.93;1709371;83;20895;-69
2022/12/19 11:13:46;;;;;;;19.77;12.05;;;;;;;-3.25;100.00;101744.44;1706099;84;20939;-68
2022/12/19 11:16:22;;;;;;;17.45;11.57;;;;;;;-3.00;100.00;101740.04;1702112;83;21424;-69
2022/12/19 11:18:48;;;;;;;22.93;14.18;;;;;;;-2.89;100.00;101743.56;1708538;84;21002;-69
2022/12/19 11:21:32;;;;;;;29.35;19.12;;;;;;;-2.48;100.00;101746.69;1708560;84;21167;-69
2022/12/19 15:39:05;;;;;;;128.05;55.40;;;;;;;-9.41;100.00;101612.92;1830015;77;27918;-70
2022/12/19 15:41:32;;;;;;;126.72;51.08;;;;;;;-8.46;100.00;101618.53;1819156;78;21470;-71
2022/12/19 15:43:58;;;;;;;122.25;57.05;;;;;;;-8.18;100.00;101619.66;1820064;78;21251;-71
2022/12/19 15:46:29;;;;;;;127.70;54.63;;;;;;;-7.97;100.00;101609.83;1820137;78;20833;-70
2022/12/19 15:48:55;;;;;;;132.37;57.70;;;;;;;-7.94;100.00;101608.34;1820138;78;20837;-70
2022/12/19 15:51:22;;;;;;;109.97;53.23;;;;;;;-7.81;100.00;101617.20;1820154;78;20947;-69
2022/12/19 15:53:48;;;;;;;174.70;79.50;;;;;;;-7.84;100.00;101615.20;1820105;78;20900;-71
2022/12/19 19:24:20;;;;;;;133.20;58.95;;;;;;;-7.84;100.00;101615.20;1820028;78;21247;-70
